NO-0017 weather

Public forecast

Using degrees Celsius for public forecast. Weather courtesy of forecast.io.

Closest aviation weather report (METAR) to Gravvold Airfield

Closest report is Kristiansund Airport (Kvernberget), 24.4 nm (45.2 km) W. Retrieved 2020/08/11 09:20 UTC (37 minutes ago):

ENKB 110920Z 23003KT 180V330 9999 FEW012 SCT064 BKN100 18/13 Q1025 RMK WIND 745FT 28003KT

Closest aviation forecast (TAF) to Gravvold Airfield

Forecast is more than 12 hours old.

Closest forecast is Molde Airport, 43.9 nm (81.2 km) WSW. Retrieved 2011/03/08 08:45 UTC (9 years ago):

TAF TAF ESDF 0808 FCNO33 ENMI 080800 RRC TAF ENML 080800Z 0809/0818 21015KT 9999 FEW030 BKN050 TEMPO 0809/0818 21022G35KT BECMG 0815/0818 21022G35KT TEMPO 0815/0818 4000 RADZ BKN012